Time;durP1;ratioP1;P1;durP2;ratioP2;P2;SDS_P1;SDS_P2;PMS_P1;PMS_P2;Temp;Humidity;BMP_temperature;BMP_pressure;BME280_temperature;BME280_humidity;BME280_pressure;Samples;Min_cycle;Max_cycle;Signal;HPM_P1;HPM_P2
2021/06/16 00:00:37;;;;;;;3.42;2.58;;;;;;;18.43;69.12;98909.00;5072741;28;20209;-76
2021/06/16 00:03:03;;;;;;;7.65;3.50;;;;;;;18.13;69.32;98841.72;5074075;28;20056;-77
2021/06/16 00:05:29;;;;;;;4.72;2.58;;;;;;;18.54;69.45;98906.47;5073794;28;20020;-76
2021/06/16 00:07:55;;;;;;;3.75;2.70;;;;;;;18.18;69.05;98855.16;5074011;28;20086;-76
2021/06/16 00:10:24;;;;;;;4.07;2.53;;;;;;;18.55;68.61;98908.91;5073994;28;20024;-77
2021/06/16 00:12:50;;;;;;;3.42;2.72;;;;;;;17.93;68.72;98796.81;5074098;28;20036;-77
2021/06/16 00:15:19;;;;;;;4.45;1.98;;;;;;;18.56;67.83;98896.34;5073889;28;20089;-76
2021/06/16 00:17:45;;;;;;;5.05;2.47;;;;;;;18.46;68.19;98882.84;5073702;28;20035;-77
2021/06/16 00:20:11;;;;;;;3.08;2.40;;;;;;;18.26;68.51;98854.75;5073732;28;20028;-76
2021/06/16 00:22:36;;;;;;;4.13;2.13;;;;;;;18.23;68.17;98844.56;5073685;28;20024;-75
2021/06/16 00:25:04;;;;;;;5.15;2.20;;;;;;;18.57;67.78;98893.41;5073791;28;20024;-76
2021/06/16 00:27:30;;;;;;;3.03;1.90;;;;;;;18.46;67.59;98864.13;5073547;28;20507;-77
2021/06/16 00:29:55;;;;;;;2.83;1.75;;;;;;;18.56;67.58;98874.94;5073579;28;20024;-77
2021/06/16 00:32:21;;;;;;;3.75;1.90;;;;;;;18.62;66.99;98888.22;5073177;28;20020;-77
2021/06/16 00:34:46;;;;;;;4.97;1.45;;;;;;;18.66;66.21;98888.53;5073275;28;20463;-76
2021/06/16 00:37:11;;;;;;;2.75;1.83;;;;;;;18.67;65.89;98882.94;5073511;28;20021;-76
2021/06/16 00:39:37;;;;;;;2.85;1.52;;;;;;;18.28;65.29;98815.22;5072028;28;20028;-76
2021/06/16 00:42:03;;;;;;;3.25;1.80;;;;;;;18.73;65.22;98886.47;5073002;28;20136;-77
2021/06/16 00:44:28;;;;;;;2.65;1.73;;;;;;;18.31;64.56;98805.91;5071722;28;20028;-76
2021/06/16 00:46:54;;;;;;;2.42;1.63;;;;;;;18.78;64.46;98889.22;5073136;28;20029;-76
2021/06/16 00:49:19;;;;;;;7.13;2.00;;;;;;;18.30;63.92;98791.75;5072841;28;20473;-77
2021/06/16 00:51:44;;;;;;;2.40;1.77;;;;;;;18.43;63.60;98815.44;5072965;28;20093;-76
2021/06/16 00:54:10;;;;;;;3.97;1.88;;;;;;;18.62;63.32;98833.94;5071733;28;20500;-76
2021/06/16 00:56:41;;;;;;;4.15;2.00;;;;;;;18.83;63.15;98859.88;5076877;28;20031;-76
2021/06/16 00:59:07;;;;;;;1.90;1.48;;;;;;;18.66;62.93;98841.19;5072181;28;20039;-77
2021/06/16 01:01:36;;;;;;;4.72;1.55;;;;;;;18.58;62.67;98825.56;5073094;28;20025;-77
2021/06/16 01:04:15;;;;;;;3.28;2.10;;;;;;;18.86;62.37;98872.75;5071537;28;20026;-78
2021/06/16 01:06:54;;;;;;;4.03;1.80;;;;;;;18.88;62.68;98869.81;5071463;28;20025;-78
2021/06/16 01:09:25;;;;;;;3.63;2.13;;;;;;;18.92;62.88;98873.63;5072670;28;20033;-78
2021/06/16 01:12:15;;;;;;;4.40;1.67;;;;;;;18.64;63.06;98835.28;5072737;28;20033;-77
2021/06/16 01:14:50;;;;;;;1.95;1.30;;;;;;;18.95;62.62;98876.59;5072767;28;20570;-77
2021/06/16 01:17:23;;;;;;;2.15;1.60;;;;;;;18.64;62.50;98829.94;5072854;28;20107;-77
2021/06/16 01:19:58;;;;;;;3.03;1.80;;;;;;;18.67;63.14;98831.31;5072758;28;20423;-78
2021/06/16 01:22:33;;;;;;;3.17;1.35;;;;;;;19.01;62.79;98885.50;5072467;28;20052;-77
2021/06/16 01:25:04;;;;;;;3.53;1.65;;;;;;;19.00;62.84;98890.06;5071320;28;20451;-77
2021/06/16 01:27:31;;;;;;;;;;;;;;;18.87;63.25;98890.41;5072974;28;20025;-77
2021/06/16 01:29:58;;;;;;;4.32;1.90;;;;;;;18.96;62.99;98904.16;5072235;28;19916;-78
2021/06/16 01:32:24;;;;;;;2.08;1.60;;;;;;;18.95;62.74;98900.69;5072900;28;20052;-79
2021/06/16 01:34:50;;;;;;;4.50;1.75;;;;;;;18.95;63.06;98903.38;5072296;28;20075;-78
2021/06/16 01:37:16;;;;;;;2.95;1.70;;;;;;;18.86;63.29;98894.16;5072597;28;20496;-77
2021/06/16 01:39:43;;;;;;;2.15;1.80;;;;;;;18.48;63.18;98828.06;5072236;28;20054;-78
2021/06/16 01:42:18;;;;;;;3.78;2.13;;;;;;;18.88;63.27;98881.34;5071977;28;20063;-77
2021/06/16 01:44:45;;;;;;;6.68;2.05;;;;;;;18.73;63.05;98849.03;5071700;28;20024;-77
2021/06/16 01:47:11;;;;;;;3.60;1.50;;;;;;;18.57;63.17;98839.94;5071938;28;20024;-77
2021/06/16 01:49:37;;;;;;;3.38;1.70;;;;;;;18.86;63.14;98877.28;5071990;28;20028;-77
2021/06/16 01:52:05;;;;;;;2.53;1.80;;;;;;;18.54;62.90;98847.66;5072261;28;20020;-77
2021/06/16 01:54:32;;;;;;;2.58;1.60;;;;;;;18.64;62.91;98864.72;5072035;28;20054;-77
2021/06/16 01:56:59;;;;;;;3.72;2.10;;;;;;;18.46;63.19;98837.38;5072014;28;20020;-77
2021/06/16 01:59:26;;;;;;;3.65;2.67;;;;;;;18.48;63.49;98840.63;5070553;28;20094;-77
2021/06/16 02:01:53;;;;;;;4.93;2.30;;;;;;;18.83;63.67;98889.28;5071680;28;20035;-77
2021/06/16 02:04:18;;;;;;;2.88;2.13;;;;;;;18.84;63.47;98893.59;5072187;28;20032;-77
2021/06/16 02:06:48;;;;;;;2.78;1.88;;;;;;;18.76;63.07;98883.31;5071861;28;20448;-75
2021/06/16 02:09:16;;;;;;;4.13;1.90;;;;;;;18.76;63.09;98893.19;5071760;28;20032;-76
2021/06/16 02:11:43;;;;;;;5.22;2.00;;;;;;;18.84;63.15;98893.59;5071974;28;20551;-75
2021/06/16 02:14:17;;;;;;;4.47;2.00;;;;;;;18.85;63.13;98892.53;5071890;28;20412;-75
2021/06/16 02:17:07;;;;;;;4.07;2.40;;;;;;;18.84;63.04;98890.91;5071475;28;20028;-77
2021/06/16 02:19:34;;;;;;;3.90;2.13;;;;;;;18.85;63.14;98897.88;5071850;28;20030;-76
2021/06/16 02:22:05;;;;;;;2.10;1.90;;;;;;;18.78;63.21;98891.09;5071721;28;20094;-76
2021/06/16 02:24:31;;;;;;;5.38;1.90;;;;;;;18.74;63.08;98885.44;5070436;28;20024;-76
2021/06/16 02:26:57;;;;;;;5.25;1.90;;;;;;;18.80;63.33;98878.28;5071446;28;20028;-76
2021/06/16 02:29:29;;;;;;;3.58;1.70;;;;;;;18.88;63.05;98897.38;5071561;28;20525;-76
2021/06/16 02:31:56;;;;;;;6.43;2.20;;;;;;;18.82;63.06;98881.53;5071565;28;20086;-76
2021/06/16 02:34:23;;;;;;;4.40;2.20;;;;;;;18.92;63.08;98898.50;5075440;28;20505;-77
2021/06/16 02:36:52;;;;;;;3.65;2.00;;;;;;;18.43;62.62;98826.13;5071619;28;20055;-77
2021/06/16 02:39:24;;;;;;;6.00;2.00;;;;;;;18.42;62.52;98827.19;5071583;28;20112;-77
2021/06/16 02:41:50;;;;;;;3.45;2.00;;;;;;;17.99;62.62;98750.44;5069891;28;20032;-77
2021/06/16 02:44:17;;;;;;;4.50;2.30;;;;;;;18.48;62.32;98832.59;5071477;28;20029;-76
2021/06/16 02:46:47;;;;;;;4.50;1.95;;;;;;;18.43;62.44;98822.66;5069987;28;20055;-77
2021/06/16 02:49:14;;;;;;;4.60;1.80;;;;;;;18.78;62.47;98877.72;5071202;28;20059;-77
2021/06/16 02:51:40;;;;;;;8.55;2.47;;;;;;;18.54;62.28;98851.13;5071139;28;20056;-77
2021/06/16 02:54:11;;;;;;;5.00;2.13;;;;;;;18.47;62.29;98836.34;5071426;28;20469;-78
2021/06/16 02:56:40;;;;;;;5.28;2.47;;;;;;;18.87;62.18;98901.13;5074959;28;20024;-77
2021/06/16 02:59:06;;;;;;;4.35;2.03;;;;;;;18.59;62.28;98850.44;5074057;28;20029;-76
2021/06/16 03:01:32;;;;;;;3.08;2.05;;;;;;;18.39;62.41;98825.00;5075313;28;20086;-77
2021/06/16 03:03:59;;;;;;;3.22;2.20;;;;;;;18.66;62.54;98872.47;5075475;28;20060;-77
2021/06/16 03:06:25;;;;;;;3.58;2.60;;;;;;;18.93;62.56;98913.50;5073925;28;20031;-76
2021/06/16 03:08:54;;;;;;;2.65;2.28;;;;;;;18.57;62.45;98857.84;5075210;28;20033;-77
2021/06/16 03:11:20;;;;;;;5.82;2.20;;;;;;;18.77;62.44;98890.28;5075256;28;20025;-76
2021/06/16 03:13:46;;;;;;;2.72;1.98;;;;;;;18.90;62.08;98927.38;5075215;28;20591;-77
2021/06/16 03:16:13;;;;;;;4.85;2.10;;;;;;;18.49;62.13;98860.94;5073516;28;20029;-77
2021/06/16 03:18:40;;;;;;;4.07;2.20;;;;;;;18.96;62.11;98931.72;5074865;28;20025;-77
2021/06/16 03:21:06;;;;;;;5.03;1.85;;;;;;;18.70;61.92;98911.03;5074770;28;20032;-77
2021/06/16 03:23:32;;;;;;;3.58;2.00;;;;;;;18.34;61.68;98862.34;5074871;28;20485;-77
2021/06/16 03:25:59;;;;;;;3.95;2.10;;;;;;;19.02;61.64;98946.00;5074844;28;20440;-76
2021/06/16 03:28:27;;;;;;;3.05;2.30;;;;;;;18.46;61.58;98858.78;5074620;28;20099;-77
2021/06/16 03:30:55;;;;;;;2.70;2.35;;;;;;;19.05;61.74;98948.97;5074473;28;20033;-77
2021/06/16 03:33:21;;;;;;;4.07;2.50;;;;;;;19.10;61.62;98956.25;5074628;28;20024;-76
2021/06/16 03:35:47;;;;;;;3.45;2.40;;;;;;;18.90;61.55;98915.88;5074807;28;20020;-76
2021/06/16 03:38:13;;;;;;;3.17;2.10;;;;;;;18.93;61.48;98918.03;5074732;28;20500;-77
2021/06/16 03:40:38;;;;;;;4.30;2.30;;;;;;;19.15;61.54;98952.84;5074634;28;20067;-77
2021/06/16 03:43:05;;;;;;;3.85;2.05;;;;;;;19.13;61.29;98953.09;5074969;28;20079;-76
2021/06/16 03:45:31;;;;;;;3.58;1.98;;;;;;;18.70;61.47;98903.84;5074518;28;20021;-76
2021/06/16 03:48:00;;;;;;;2.03;1.83;;;;;;;18.76;61.08;98907.38;5074559;28;20099;-76
2021/06/16 03:50:27;;;;;;;6.95;2.10;;;;;;;19.07;61.14;98951.41;5074343;28;20524;-76
2021/06/16 03:52:55;;;;;;;5.32;2.33;;;;;;;19.05;61.03;98942.81;5074373;28;20033;-77
2021/06/16 03:55:22;;;;;;;2.63;2.08;;;;;;;19.16;61.20;98954.47;5074046;28;20111;-76
2021/06/16 03:57:48;;;;;;;3.60;2.30;;;;;;;19.16;61.31;98962.50;5073988;28;20028;-76
2021/06/16 04:00:14;;;;;;;5.20;2.15;;;;;;;18.72;61.17;98880.31;5074316;28;20024;-76
2021/06/16 04:02:41;;;;;;;5.55;2.25;;;;;;;19.21;61.13;98954.53;5074305;28;20032;-77
2021/06/16 04:05:09;;;;;;;2.80;2.15;;;;;;;19.19;60.97;98954.78;5073875;28;20028;-76
2021/06/16 04:07:36;;;;;;;4.22;2.40;;;;;;;19.08;60.86;98944.19;5073288;28;20382;-76
2021/06/16 04:10:03;;;;;;;3.00;2.50;;;;;;;18.79;61.04;98893.53;5076205;28;20092;-76
2021/06/16 04:12:29;;;;;;;4.30;2.65;;;;;;;18.98;61.29;98943.00;5079543;28;20078;-76
2021/06/16 04:14:55;;;;;;;3.80;2.85;;;;;;;18.73;61.26;98907.88;5074173;28;20032;-77
2021/06/16 04:17:22;;;;;;;3.88;2.78;;;;;;;19.15;61.35;98971.56;5073698;28;20095;-77
2021/06/16 04:19:49;;;;;;;3.95;2.47;;;;;;;19.16;61.67;98967.84;5072564;28;20048;-76
2021/06/16 04:22:15;;;;;;;4.90;2.70;;;;;;;18.63;62.04;98899.72;5074026;28;20056;-77
2021/06/16 04:24:40;;;;;;;2.50;2.30;;;;;;;18.81;62.02;98922.69;5072357;28;20035;-76
2021/06/16 04:27:06;;;;;;;3.75;2.63;;;;;;;18.72;62.09;98924.97;5072446;28;20481;-77
2021/06/16 04:29:31;;;;;;;8.10;2.75;;;;;;;19.09;62.22;98977.91;5073419;28;20092;-76
2021/06/16 04:31:57;;;;;;;4.97;3.00;;;;;;;18.77;62.21;98941.09;5073590;28;20052;-76
2021/06/16 04:34:22;;;;;;;4.82;2.90;;;;;;;18.90;62.40;98966.69;5073502;28;20025;-76
2021/06/16 04:36:48;;;;;;;3.90;2.38;;;;;;;19.10;62.56;98987.56;5072142;28;20025;-77
2021/06/16 04:39:15;;;;;;;3.42;2.60;;;;;;;19.10;62.56;98990.25;5073290;28;20177;-77
2021/06/16 04:41:40;;;;;;;2.50;2.30;;;;;;;18.76;62.52;98936.00;5073239;28;20117;-76
2021/06/16 04:44:06;;;;;;;3.25;2.60;;;;;;;18.61;62.44;98918.69;5073092;28;20477;-77
2021/06/16 04:46:32;;;;;;;5.07;2.80;;;;;;;18.89;62.60;98959.72;5072416;28;20020;-76
2021/06/16 04:48:57;;;;;;;6.43;3.08;;;;;;;18.72;62.48;98935.69;5073265;28;20028;-76
2021/06/16 04:51:22;;;;;;;5.70;2.90;;;;;;;18.88;62.69;98953.56;5073139;28;20034;-75
2021/06/16 04:53:48;;;;;;;4.25;2.90;;;;;;;18.73;62.81;98929.28;5073679;28;20101;-76
2021/06/16 04:56:13;;;;;;;5.60;3.10;;;;;;;19.05;62.79;98978.41;5075991;28;20531;-76
2021/06/16 04:58:39;;;;;;;3.80;2.97;;;;;;;18.89;62.81;98949.81;5082022;28;20036;-77
2021/06/16 05:01:04;;;;;;;4.38;2.90;;;;;;;19.10;62.71;98983.03;5078439;28;20058;-77
2021/06/16 05:03:29;;;;;;;3.72;2.70;;;;;;;18.65;62.59;98914.47;5087967;28;20032;-75
2021/06/16 05:05:55;;;;;;;3.90;2.83;;;;;;;19.03;62.71;98977.84;5080096;28;20029;-74
2021/06/16 05:08:20;;;;;;;5.07;2.90;;;;;;;18.81;62.76;98952.13;5072898;28;20040;-77
2021/06/16 05:10:46;;;;;;;3.25;2.95;;;;;;;18.62;62.63;98914.13;5090338;28;20031;-76
2021/06/16 05:13:11;;;;;;;4.43;3.30;;;;;;;18.82;62.87;98951.06;5092165;28;20031;-77
2021/06/16 05:15:37;;;;;;;4.38;2.92;;;;;;;19.12;62.61;98991.63;5092808;28;20028;-76
2021/06/16 05:18:04;;;;;;;5.25;2.70;;;;;;;19.05;62.56;98978.41;5082739;28;20035;-76
2021/06/16 05:20:31;;;;;;;3.45;2.80;;;;;;;19.17;62.57;98997.03;5078823;28;20024;-75
2021/06/16 05:22:58;;;;;;;3.30;3.00;;;;;;;19.19;62.46;99020.88;5076885;28;20028;-76
2021/06/16 05:25:24;;;;;;;4.32;2.78;;;;;;;18.93;62.34;98966.19;5081668;28;20056;-76
2021/06/16 05:27:49;;;;;;;3.60;3.15;;;;;;;19.15;62.36;98996.47;5074765;28;20484;-74
2021/06/16 05:30:17;;;;;;;4.07;3.10;;;;;;;18.97;62.30;98960.09;5080963;28;20080;-76
2021/06/16 05:32:43;;;;;;;5.22;3.35;;;;;;;19.20;62.20;98999.22;5092637;28;20488;-76
2021/06/16 05:35:09;;;;;;;4.45;3.28;;;;;;;19.35;62.20;99026.22;5072553;28;20028;-77
2021/06/16 05:37:34;;;;;;;5.72;3.50;;;;;;;19.40;61.76;99030.81;5072129;28;20036;-76
2021/06/16 05:40:00;;;;;;;4.60;3.60;;;;;;;19.43;61.88;99027.66;5083647;28;20111;-77
2021/06/16 05:42:25;;;;;;;3.45;3.15;;;;;;;19.18;61.61;98984.47;5071191;28;20063;-75
2021/06/16 05:44:50;;;;;;;5.05;3.10;;;;;;;18.97;61.69;98965.47;5073436;28;20024;-76
2021/06/16 05:47:16;;;;;;;5.93;3.13;;;;;;;18.96;61.82;98952.31;5073123;28;20101;-76
2021/06/16 05:49:41;;;;;;;3.63;3.03;;;;;;;18.93;61.78;98948.28;5075229;28;20112;-77
2021/06/16 05:52:07;;;;;;;4.45;3.15;;;;;;;19.01;62.13;98960.41;5071684;28;20032;-77
2021/06/16 05:54:35;;;;;;;5.68;3.35;;;;;;;19.41;62.25;99035.13;5079713;28;20105;-77
2021/06/16 05:57:01;;;;;;;5.60;4.85;;;;;;;18.88;62.27;98942.84;5072967;28;20036;-78
2021/06/16 05:59:26;;;;;;;4.63;3.80;;;;;;;19.09;62.42;98976.06;5078845;28;20034;-77
2021/06/16 06:01:52;;;;;;;4.20;3.78;;;;;;;19.07;62.45;98963.97;5071407;28;20109;-76
2021/06/16 06:04:17;;;;;;;4.43;3.50;;;;;;;19.05;62.44;98954.34;5072199;28;20059;-77
2021/06/16 06:06:43;;;;;;;5.03;3.67;;;;;;;19.26;62.65;98984.84;5081014;28;20567;-77
2021/06/16 06:09:09;;;;;;;5.65;3.80;;;;;;;19.66;62.27;99040.03;5086951;28;20031;-77
2021/06/16 06:11:36;;;;;;;8.52;3.88;;;;;;;19.71;62.21;99040.09;5091670;28;20031;-77
2021/06/16 06:14:02;;;;;;;5.13;3.83;;;;;;;19.59;62.27;99008.06;5075957;28;20035;-76
2021/06/16 06:16:27;;;;;;;4.32;3.60;;;;;;;19.74;62.25;99026.19;5089606;28;20031;-77
2021/06/16 06:18:53;;;;;;;5.32;3.42;;;;;;;19.58;61.96;99009.13;5082764;28;20085;-76
2021/06/16 06:21:18;;;;;;;4.15;3.45;;;;;;;19.93;61.91;99042.75;5074702;28;20024;-77
2021/06/16 06:23:44;;;;;;;4.20;3.80;;;;;;;19.98;61.68;99040.13;5078920;28;20086;-76
2021/06/16 06:26:09;;;;;;;6.28;2.88;;;;;;;19.87;61.22;99011.59;5073697;28;20421;-77
2021/06/16 06:28:36;;;;;;;3.70;3.10;;;;;;;20.05;61.24;99038.06;5086983;28;20106;-77
2021/06/16 06:31:02;;;;;;;5.60;3.20;;;;;;;20.08;61.10;99029.53;5078338;28;20031;-76
2021/06/16 06:33:28;;;;;;;4.40;3.35;;;;;;;19.89;61.12;99001.44;5072220;28;20850;-76
2021/06/16 06:35:53;;;;;;;5.40;3.10;;;;;;;20.28;61.28;99048.50;5096114;28;20023;-76
2021/06/16 06:38:19;;;;;;;4.20;3.80;;;;;;;20.33;61.22;99036.22;5108860;28;20027;-76
2021/06/16 06:40:44;;;;;;;5.22;3.33;;;;;;;20.35;60.79;99031.41;5090721;28;20024;-77
2021/06/16 06:43:09;;;;;;;5.68;4.07;;;;;;;20.18;60.29;98986.75;5088337;28;20416;-74
2021/06/16 06:45:35;;;;;;;4.80;3.08;;;;;;;20.66;60.41;99078.94;5086131;28;20027;-76
2021/06/16 06:48:01;;;;;;;5.97;3.20;;;;;;;20.67;60.21;99063.63;5080797;28;20032;-77
2021/06/16 06:50:26;;;;;;;3.08;2.78;;;;;;;20.53;60.16;99037.25;5078450;28;20032;-76
2021/06/16 06:52:52;;;;;;;6.20;5.50;;;;;;;20.47;59.93;99016.00;5088979;28;20593;-77
2021/06/16 06:55:18;;;;;;;3.63;3.17;;;;;;;20.74;59.97;99062.38;5087025;28;20534;-76
2021/06/16 06:57:44;;;;;;;5.03;2.72;;;;;;;20.72;59.81;99061.00;5087137;28;20412;-78
2021/06/16 07:00:12;;;;;;;3.50;2.50;;;;;;;20.40;59.41;99013.53;5094550;28;20648;-77
2021/06/16 07:02:37;;;;;;;5.18;3.10;;;;;;;20.62;59.50;99059.03;5087198;28;20024;-78
2021/06/16 07:05:04;;;;;;;3.58;2.65;;;;;;;20.38;59.48;99025.53;5083198;28;20130;-76
2021/06/16 07:07:30;;;;;;;5.38;3.25;;;;;;;20.62;59.54;99069.78;5073511;28;20488;-76
2021/06/16 07:09:55;;;;;;;5.80;3.50;;;;;;;20.61;59.83;99070.84;5080372;28;20015;-77
2021/06/16 07:12:21;;;;;;;7.05;3.58;;;;;;;20.59;60.08;99070.28;5090526;28;20031;-74
2021/06/16 07:14:46;;;;;;;4.53;2.83;;;;;;;20.47;60.16;99053.53;5087062;28;20027;-76
2021/06/16 07:17:12;;;;;;;4.40;3.15;;;;;;;20.33;60.14;99030.84;5072489;28;20078;-76
2021/06/16 07:19:37;;;;;;;4.45;2.63;;;;;;;20.18;60.16;99007.41;5070477;28;20074;-75
2021/06/16 07:22:04;;;;;;;3.42;2.92;;;;;;;20.27;60.02;99025.44;5070691;28;20035;-76
2021/06/16 07:24:29;;;;;;;2.85;2.60;;;;;;;20.34;60.17;99043.19;5070900;28;20029;-74
2021/06/16 07:26:55;;;;;;;4.63;3.10;;;;;;;20.56;60.15;99079.66;5076717;28;20459;-74
2021/06/16 07:29:21;;;;;;;4.40;2.80;;;;;;;20.45;60.21;99063.72;5089328;28;20048;-74
2021/06/16 07:31:47;;;;;;;3.67;2.45;;;;;;;20.56;60.32;99084.19;5081096;28;20461;-74
2021/06/16 07:34:13;;;;;;;5.07;2.90;;;;;;;20.60;59.95;99094.16;5088343;28;20505;-75
2021/06/16 07:36:39;;;;;;;3.45;2.78;;;;;;;20.24;60.27;99031.31;5089248;28;20021;-76
2021/06/16 07:39:05;;;;;;;3.97;2.67;;;;;;;20.72;60.08;99091.31;5090546;28;20020;-74
2021/06/16 07:41:30;;;;;;;4.72;3.30;;;;;;;20.49;59.77;99049.53;5091110;28;20560;-76
2021/06/16 07:43:56;;;;;;;6.28;3.60;;;;;;;20.55;59.95;99053.06;5095418;28;20027;-76
2021/06/16 07:46:22;;;;;;;6.30;3.58;;;;;;;20.76;60.02;99089.75;5083388;28;20020;-75
2021/06/16 07:48:50;;;;;;;5.03;3.50;;;;;;;20.83;59.86;99095.75;5078995;28;20097;-75
2021/06/16 07:51:15;;;;;;;3.60;3.30;;;;;;;20.70;59.78;99074.66;5075549;28;20020;-76
2021/06/16 07:53:41;;;;;;;6.05;3.40;;;;;;;20.94;59.87;99093.94;5107291;28;20562;-75
2021/06/16 07:56:07;;;;;;;7.38;3.22;;;;;;;20.74;59.40;99065.03;5112028;28;20024;-76
2021/06/16 07:58:32;;;;;;;5.38;3.13;;;;;;;20.50;59.26;99028.91;5093006;28;20135;-75
2021/06/16 08:00:57;;;;;;;5.40;3.33;;;;;;;20.94;59.06;99086.69;5093684;28;20107;-76
2021/06/16 08:03:23;;;;;;;6.05;3.90;;;;;;;20.96;59.34;99078.41;5084945;28;20113;-77
2021/06/16 08:05:50;;;;;;;6.15;4.10;;;;;;;20.98;59.46;99072.78;5093420;28;20151;-73
2021/06/16 08:08:16;;;;;;;7.32;3.53;;;;;;;21.09;59.04;99079.84;5092855;28;20069;-73
2021/06/16 08:10:41;;;;;;;7.93;3.60;;;;;;;21.20;59.14;99084.19;5082641;28;20028;-74
2021/06/16 08:13:06;;;;;;;6.90;3.50;;;;;;;21.46;58.81;99112.06;5082728;28;20409;-76
2021/06/16 08:15:33;;;;;;;5.55;3.78;;;;;;;21.18;58.63;99057.63;5095009;28;20518;-75
2021/06/16 08:17:58;;;;;;;5.38;3.90;;;;;;;21.38;58.67;99066.88;5082062;28;20388;-74
2021/06/16 08:20:24;;;;;;;5.20;3.40;;;;;;;21.53;58.10;99078.53;5086929;28;20028;-75
2021/06/16 08:22:49;;;;;;;4.75;2.90;;;;;;;21.60;58.33;99064.88;5072887;28;20031;-74
2021/06/16 08:25:15;;;;;;;5.05;3.65;;;;;;;21.86;57.98;99093.50;5086168;28;20023;-74
2021/06/16 08:27:42;;;;;;;4.57;3.47;;;;;;;22.04;58.18;99113.75;5077032;28;20386;-77
2021/06/16 08:30:09;;;;;;;4.75;3.53;;;;;;;22.12;58.12;99123.19;5078226;28;20105;-75
2021/06/16 08:32:35;;;;;;;3.60;3.30;;;;;;;21.67;57.96;99049.34;5078090;28;20034;-75
2021/06/16 08:35:01;;;;;;;14.05;3.88;;;;;;;22.14;58.45;99132.59;5081910;28;20020;-75
2021/06/16 08:37:26;;;;;;;5.20;3.50;;;;;;;22.10;58.42;99146.84;5081405;28;20040;-76
2021/06/16 08:39:51;;;;;;;5.72;3.45;;;;;;;21.69;58.59;99092.06;5073830;28;20044;-75
2021/06/16 08:42:17;;;;;;;4.72;4.00;;;;;;;21.92;58.82;99133.81;5078226;28;20027;-74
2021/06/16 08:44:43;;;;;;;5.95;3.85;;;;;;;21.70;58.83;99091.81;5079603;28;20016;-74
2021/06/16 08:47:08;;;;;;;4.75;3.67;;;;;;;21.82;58.81;99137.28;5072714;28;20047;-73
2021/06/16 08:49:34;;;;;;;6.95;4.15;;;;;;;21.55;58.51;99089.84;5071743;28;20104;-73
2021/06/16 08:52:00;;;;;;;6.03;3.55;;;;;;;21.59;58.64;99114.31;5072125;28;20027;-74
2021/06/16 08:54:26;;;;;;;5.28;3.30;;;;;;;21.70;58.70;99147.44;5075733;28;20032;-75
2021/06/16 08:56:51;;;;;;;4.85;3.13;;;;;;;21.40;58.47;99105.84;5072888;28;20074;-74
2021/06/16 08:59:17;;;;;;;4.88;3.78;;;;;;;21.26;58.66;99110.06;5078350;28;20032;-75
2021/06/16 09:01:42;;;;;;;6.95;3.55;;;;;;;21.55;58.78;99166.91;5084356;28;20106;-74
2021/06/16 09:04:08;;;;;;;6.70;4.28;;;;;;;21.52;58.88;99154.00;5096210;28;20038;-78
2021/06/16 09:06:33;;;;;;;5.15;4.38;;;;;;;21.49;59.09;99158.00;5099775;28;20108;-74
2021/06/16 09:09:04;;;;;;;6.03;3.92;;;;;;;21.42;59.08;99151.25;5080078;28;20029;-75
2021/06/16 09:11:43;;;;;;;5.90;4.05;;;;;;;21.17;59.17;99120.44;5092955;28;20028;-76
2021/06/16 09:14:13;;;;;;;4.82;4.18;;;;;;;21.38;59.47;99177.81;5096903;28;20058;-73
2021/06/16 09:16:39;;;;;;;10.07;5.10;;;;;;;20.87;59.61;99106.78;5084888;28;20032;-75
2021/06/16 09:19:21;;;;;;;5.28;4.13;;;;;;;20.83;60.79;99119.88;5089127;28;20103;-75
2021/06/16 09:22:06;;;;;;;4.70;4.20;;;;;;;21.17;60.69;99192.91;5094305;28;20110;-76
2021/06/16 09:24:41;;;;;;;8.02;6.00;;;;;;;21.14;62.32;99188.06;5083076;28;20553;-75
2021/06/16 09:27:07;;;;;;;7.25;4.22;;;;;;;20.76;60.90;99130.00;5070797;28;20093;-76
2021/06/16 09:29:32;;;;;;;5.93;4.40;;;;;;;20.88;61.40;99149.44;5071983;28;20402;-74
2021/06/16 09:32:03;;;;;;;8.63;5.93;;;;;;;20.95;62.12;99154.63;5071499;28;20031;-73
2021/06/16 09:34:29;;;;;;;;;;;;;;;21.06;62.57;99195.78;5078925;28;20020;-77
2021/06/16 09:36:56;;;;;;;5.07;4.10;;;;;;;21.09;62.08;99195.25;5074505;28;20362;-76
2021/06/16 09:39:27;;;;;;;7.57;5.18;;;;;;;21.08;62.64;99197.13;5073369;28;20496;-76
2021/06/16 09:42:13;;;;;;;6.05;5.45;;;;;;;21.05;62.59;99216.44;5091991;28;20031;-74
2021/06/16 09:44:46;;;;;;;6.43;4.72;;;;;;;20.97;62.86;99208.03;5090284;28;20056;-74
2021/06/16 09:47:17;;;;;;;8.50;5.22;;;;;;;20.98;63.07;99209.66;5083113;28;20035;-73
2021/06/16 09:49:57;;;;;;;7.05;4.15;;;;;;;20.89;63.07;99195.88;5086215;28;20429;-75
2021/06/16 09:52:37;;;;;;;6.10;5.32;;;;;;;20.91;63.37;99202.63;5078502;28;20037;-74
2021/06/16 09:55:30;;;;;;;4.95;4.55;;;;;;;20.95;62.70;99216.34;5065328;28;20045;-76
2021/06/16 09:58:01;;;;;;;5.45;4.38;;;;;;;20.96;62.40;99222.50;5051428;28;20033;-76
2021/06/16 10:00:30;;;;;;;6.05;4.68;;;;;;;20.88;62.52;99219.22;5054294;28;20056;-76
2021/06/16 10:03:12;;;;;;;4.80;4.30;;;;;;;20.99;61.95;99224.69;5053763;28;20043;-75
2021/06/16 10:06:03;;;;;;;6.82;4.38;;;;;;;21.02;61.81;99234.94;5050594;28;20035;-75
2021/06/16 10:08:30;;;;;;;2.55;2.33;;;;;;;21.00;61.47;99237.06;5057051;28;20025;-77
2021/06/16 10:10:55;;;;;;;4.47;3.15;;;;;;;20.57;61.11;99160.91;5064510;28;20436;-74
2021/06/16 10:13:24;;;;;;;3.40;2.80;;;;;;;20.58;61.01;99173.28;5066532;28;20028;-73
2021/06/16 10:15:50;;;;;;;2.72;2.53;;;;;;;21.02;60.96;99233.06;5067184;28;20032;-74
2021/06/16 10:18:17;;;;;;;3.25;2.30;;;;;;;20.88;60.62;99205.81;5054431;28;20032;-75
2021/06/16 10:20:42;;;;;;;2.88;2.67;;;;;;;21.01;60.59;99227.94;5067840;28;20120;-75
2021/06/16 10:23:09;;;;;;;4.22;2.80;;;;;;;20.56;60.47;99144.00;5071217;28;20104;-72
2021/06/16 10:25:35;;;;;;;6.22;3.10;;;;;;;20.93;60.66;99183.56;5055296;28;20108;-75
2021/06/16 10:28:02;;;;;;;4.53;2.75;;;;;;;21.20;60.49;99216.56;5049451;28;20476;-76
2021/06/16 10:30:40;;;;;;;4.25;2.85;;;;;;;20.90;60.58;99189.44;5055028;28;20108;-74
2021/06/16 10:33:29;;;;;;;8.35;3.50;;;;;;;21.26;60.43;99228.19;5051035;28;20048;-77
2021/06/16 10:36:21;;;;;;;4.63;3.58;;;;;;;21.24;59.68;99225.78;5053798;28;20078;-76
2021/06/16 10:38:56;;;;;;;4.25;2.80;;;;;;;21.25;59.94;99230.06;5058306;28;20072;-74
2021/06/16 10:41:47;;;;;;;5.53;3.10;;;;;;;21.27;60.07;99235.19;5059653;28;20024;-73
2021/06/16 10:44:28;;;;;;;5.13;3.10;;;;;;;21.14;59.88;99214.09;5065659;28;20421;-73
2021/06/16 10:46:59;;;;;;;9.32;3.92;;;;;;;20.99;59.91;99189.81;5056554;28;20029;-74
2021/06/16 10:49:50;;;;;;;6.03;3.30;;;;;;;21.30;60.25;99231.19;5055660;28;20044;-73
2021/06/16 10:52:22;;;;;;;3.57;3.23;;;;;;;21.08;60.28;99193.63;5047764;28;20037;-74
2021/06/16 10:54:58;;;;;;;6.00;3.15;;;;;;;20.69;60.10;99126.72;5051399;28;20025;-75
2021/06/16 10:57:24;;;;;;;8.38;4.90;;;;;;;21.32;60.04;99215.63;5060321;28;20029;-76
2021/06/16 10:59:50;;;;;;;5.55;3.75;;;;;;;21.50;60.14;99229.47;5054663;28;20020;-75
2021/06/16 11:02:16;;;;;;;7.10;3.55;;;;;;;21.58;59.82;99230.91;5059666;28;20028;-76
2021/06/16 11:04:43;;;;;;;5.63;3.90;;;;;;;21.73;59.70;99232.91;5057986;28;20516;-76
2021/06/16 11:07:38;;;;;;;6.50;3.67;;;;;;;21.76;60.21;99222.44;5057033;28;20474;-76
2021/06/16 11:10:07;;;;;;;6.05;2.83;;;;;;;21.78;59.88;99211.44;5046657;28;20037;-75
2021/06/16 11:12:38;;;;;;;4.25;2.75;;;;;;;21.84;59.63;99221.94;5065216;28;20028;-76
2021/06/16 11:15:09;;;;;;;5.32;3.53;;;;;;;21.91;59.48;99224.41;5052475;28;20047;-75
2021/06/16 11:17:35;;;;;;;3.40;3.10;;;;;;;21.94;58.99;99223.09;5053034;28;20025;-76
2021/06/16 11:20:05;;;;;;;8.25;3.08;;;;;;;21.64;58.99;99160.03;5057995;28;20029;-73
2021/06/16 11:22:31;;;;;;;5.32;3.20;;;;;;;22.08;58.71;99208.13;5054858;28;20028;-76
2021/06/16 11:25:21;;;;;;;4.05;2.97;;;;;;;22.18;58.90;99217.06;5067883;28;20020;-76
2021/06/16 11:28:02;;;;;;;4.35;2.95;;;;;;;22.28;58.59;99216.31;5074462;28;20096;-76
2021/06/16 11:30:55;;;;;;;3.80;3.03;;;;;;;22.34;58.40;99220.66;5070123;28;20025;-77
2021/06/16 11:33:25;;;;;;;3.35;3.05;;;;;;;22.37;58.14;99219.31;5062260;28;20060;-75
2021/06/16 11:36:00;;;;;;;9.88;3.42;;;;;;;22.39;57.92;99215.31;5058597;28;20024;-75
2021/06/16 11:38:29;;;;;;;3.58;3.15;;;;;;;22.19;58.08;99182.91;5053143;28;20108;-76